createdAt,value
2023-03-16T00:01:06.275Z,28.85
2023-03-16T00:03:33.056Z,28.98
2023-03-16T00:05:59.727Z,28.89
2023-03-16T00:08:26.291Z,29.04
2023-03-16T00:10:54.174Z,29.05
2023-03-16T00:13:25.164Z,29.03
2023-03-16T00:15:56.145Z,28.79
2023-03-16T00:18:27.022Z,28.84
2023-03-16T00:20:59.678Z,28.78
2023-03-16T00:23:29.212Z,28.90
2023-03-16T00:25:59.709Z,28.93
2023-03-16T00:28:27.211Z,29.12
2023-03-16T00:30:58.865Z,28.85
2023-03-16T00:33:26.237Z,29.06
2023-03-16T00:36:03.744Z,29.07
2023-03-16T00:38:32.223Z,29.04
2023-03-16T00:40:58.969Z,28.95
2023-03-16T00:43:27.132Z,29.11
2023-03-16T00:46:06.909Z,28.94
2023-03-16T00:48:37.516Z,29.12
2023-03-16T00:51:06.408Z,29.16
2023-03-16T00:53:33.898Z,29.14
2023-03-16T00:56:04.164Z,28.89
2023-03-16T00:58:35.823Z,28.98
2023-03-16T01:01:03.507Z,29.00
2023-03-16T01:03:30.172Z,29.16
2023-03-16T01:05:59.974Z,29.08
2023-03-16T01:08:29.862Z,29.04
2023-03-16T01:10:56.461Z,28.93
2023-03-16T01:13:23.435Z,28.93
2023-03-16T01:15:53.719Z,29.12
2023-03-16T01:18:20.278Z,29.08
2023-03-16T01:20:50.752Z,29.09
2023-03-16T01:23:17.955Z,29.08
2023-03-16T01:25:47.657Z,29.15
2023-03-16T01:28:14.244Z,29.00
2023-03-16T01:30:40.886Z,29.08
2023-03-16T01:33:07.658Z,29.20
2023-03-16T01:35:34.433Z,29.09
2023-03-16T01:38:01.344Z,29.08
2023-03-16T01:40:28.146Z,29.08
2023-03-16T01:43:02.589Z,29.21
2023-03-16T01:46:06.200Z,29.00
2023-03-16T01:48:42.686Z,29.08
2023-03-16T01:51:11.910Z,29.15
2023-03-16T01:53:39.187Z,29.29
2023-03-16T01:56:08.322Z,29.30
2023-03-16T01:58:34.954Z,29.27
2023-03-16T02:01:01.659Z,29.13
2023-03-16T02:03:29.966Z,28.92
2023-03-16T02:06:10.510Z,29.15
2023-03-16T02:08:40.937Z,29.00
2023-03-16T02:11:07.537Z,29.14
2023-03-16T02:13:53.173Z,29.08
2023-03-16T02:16:22.482Z,29.07
2023-03-16T02:18:50.176Z,29.23
2023-03-16T02:21:33.106Z,29.07
2023-03-16T02:24:02.248Z,29.10
2023-03-16T02:26:44.808Z,29.02
2023-03-16T02:29:53.669Z,29.12
2023-03-16T02:32:20.919Z,29.17
2023-03-16T02:34:47.557Z,29.04
2023-03-16T02:37:14.148Z,29.04
2023-03-16T02:39:44.007Z,28.98
2023-03-16T02:42:15.259Z,29.11
2023-03-16T02:44:43.706Z,29.00
2023-03-16T02:47:14.712Z,28.88
2023-03-16T02:49:43.718Z,28.97
2023-03-16T02:52:11.064Z,29.12
2023-03-16T02:54:38.076Z,29.04
2023-03-16T02:57:04.909Z,29.06
2023-03-16T02:59:32.533Z,29.13
2023-03-16T03:01:59.430Z,28.96
2023-03-16T03:04:26.025Z,29.17
2023-03-16T03:06:52.593Z,29.14
2023-03-16T03:09:19.448Z,29.14
2023-03-16T03:11:47.476Z,29.13
2023-03-16T03:14:16.593Z,29.16
2023-03-16T03:16:47.306Z,29.11
2023-03-16T03:19:15.495Z,29.20
2023-03-16T03:21:42.105Z,29.19
2023-03-16T03:24:09.358Z,29.16
2023-03-16T03:26:38.195Z,29.32
2023-03-16T03:29:09.253Z,29.13
2023-03-16T03:31:35.954Z,29.24
2023-03-16T03:34:06.469Z,29.07
2023-03-16T03:36:35.079Z,28.93
2023-03-16T03:39:04.901Z,28.96
2023-03-16T03:41:32.896Z,29.13
2023-03-16T03:44:01.704Z,29.05
2023-03-16T03:46:28.496Z,29.28
2023-03-16T03:49:01.357Z,29.27
2023-03-16T03:51:30.726Z,29.21
2023-03-16T03:54:10.437Z,29.23
2023-03-16T03:56:49.592Z,29.22
2023-03-16T03:59:16.698Z,29.13
2023-03-16T04:02:02.103Z,29.25
2023-03-16T04:04:39.523Z,29.17
2023-03-16T04:07:07.992Z,29.23
2023-03-16T04:09:34.697Z,29.20
2023-03-16T04:12:02.516Z,28.91
2023-03-16T04:14:29.474Z,29.23
2023-03-16T04:16:56.477Z,29.15
2023-03-16T04:19:23.923Z,28.97
2023-03-16T04:21:51.709Z,29.23
2023-03-16T04:24:19.348Z,29.04
2023-03-16T04:26:46.049Z,29.17
2023-03-16T04:29:19.154Z,28.92
2023-03-16T04:31:46.768Z,28.98
2023-03-16T04:34:13.730Z,29.08
2023-03-16T04:36:41.722Z,28.92
2023-03-16T04:39:09.111Z,29.00
2023-03-16T04:41:35.890Z,29.01
2023-03-16T04:44:10.478Z,29.04
2023-03-16T04:46:37.346Z,28.60
2023-03-16T04:49:09.539Z,28.92
2023-03-16T04:51:42.427Z,29.13
2023-03-16T04:54:12.826Z,29.03
2023-03-16T04:56:42.589Z,29.10
2023-03-16T04:59:19.942Z,29.09
2023-03-16T05:02:01.374Z,29.06
2023-03-16T05:04:28.236Z,29.16
2023-03-16T05:06:54.845Z,29.03
2023-03-16T05:09:26.645Z,29.11
2023-03-16T05:11:53.244Z,29.00
2023-03-16T05:14:19.880Z,29.04
2023-03-16T05:17:03.913Z,28.99
2023-03-16T05:19:30.599Z,28.92
2023-03-16T05:21:57.407Z,28.92
2023-03-16T05:24:23.994Z,29.01
2023-03-16T05:26:50.920Z,28.93
2023-03-16T05:29:19.571Z,29.18
2023-03-16T05:31:49.081Z,29.15
2023-03-16T05:34:18.559Z,29.26
2023-03-16T05:36:45.218Z,29.22
2023-03-16T05:39:15.128Z,26.89
2023-03-16T05:41:45.932Z,25.26
2023-03-16T05:44:45.073Z,24.51
2023-03-16T05:47:28.190Z,24.43
2023-03-16T05:49:57.252Z,24.48
2023-03-16T05:52:33.819Z,24.72
2023-03-16T05:55:05.680Z,25.36
2023-03-16T05:57:33.868Z,26.52
2023-03-16T06:00:01.880Z,26.50
2023-03-16T06:02:39.014Z,26.13
2023-03-16T06:05:07.288Z,26.32
2023-03-16T06:07:35.435Z,26.23
2023-03-16T06:10:02.751Z,26.27
2023-03-16T06:12:29.843Z,26.30
2023-03-16T06:14:56.501Z,26.65
2023-03-16T06:17:23.045Z,26.56
2023-03-16T06:19:51.332Z,26.84
2023-03-16T06:22:18.524Z,26.96
2023-03-16T06:24:45.187Z,27.04
2023-03-16T06:27:13.365Z,26.81
2023-03-16T06:29:55.064Z,27.22
2023-03-16T06:32:22.083Z,27.22
2023-03-16T06:34:48.817Z,27.25
2023-03-16T06:37:15.510Z,27.12
2023-03-16T06:39:42.348Z,27.33
2023-03-16T06:42:10.729Z,27.34
2023-03-16T06:44:38.756Z,27.38
2023-03-16T06:47:10.289Z,27.56
2023-03-16T06:49:36.971Z,27.51
2023-03-16T06:52:10.430Z,27.58
2023-03-16T06:54:37.600Z,27.59
2023-03-16T06:57:04.598Z,27.74
2023-03-16T06:59:31.351Z,27.59
2023-03-16T07:01:58.049Z,27.75
2023-03-16T07:04:24.869Z,27.72
2023-03-16T07:06:51.525Z,27.94
2023-03-16T07:09:18.261Z,27.84
2023-03-16T07:11:45.078Z,27.80
2023-03-16T07:14:11.971Z,27.80
2023-03-16T07:16:39.779Z,27.92
2023-03-16T07:19:08.840Z,27.75
2023-03-16T07:21:40.056Z,27.82
2023-03-16T07:24:11.117Z,27.91
2023-03-16T07:26:38.384Z,28.00
2023-03-16T07:29:06.387Z,28.16
2023-03-16T07:31:34.544Z,28.11
2023-03-16T07:34:04.433Z,28.00
2023-03-16T07:36:37.418Z,27.91
2023-03-16T07:39:06.135Z,27.92
2023-03-16T07:41:34.514Z,28.11
2023-03-16T07:44:15.395Z,28.01
2023-03-16T07:46:47.107Z,27.98
2023-03-16T07:49:13.747Z,27.97
2023-03-16T07:51:41.010Z,28.08
2023-03-16T07:54:08.577Z,27.98
2023-03-16T07:56:48.225Z,28.08
2023-03-16T07:59:24.801Z,27.96
2023-03-16T08:01:51.477Z,27.99
2023-03-16T08:04:18.190Z,28.18
2023-03-16T08:06:45.476Z,28.20
2023-03-16T08:09:12.147Z,28.20
2023-03-16T08:11:40.029Z,28.26
2023-03-16T08:14:06.663Z,28.50
2023-03-16T08:16:56.615Z,28.50
2023-03-16T08:19:25.307Z,28.51
2023-03-16T08:22:01.430Z,28.55
2023-03-16T08:24:34.182Z,28.64
2023-03-16T08:27:03.563Z,28.70
2023-03-16T08:29:34.336Z,29.85
2023-03-16T08:32:01.946Z,29.11
2023-03-16T08:34:33.261Z,28.85
2023-03-16T08:37:00.109Z,28.72
2023-03-16T08:39:27.479Z,28.93
2023-03-16T08:41:55.032Z,28.75
2023-03-16T08:44:28.720Z,28.75
2023-03-16T08:46:55.726Z,28.79
2023-03-16T08:49:25.414Z,28.88
2023-03-16T08:52:00.784Z,28.89
2023-03-16T08:54:27.514Z,28.83
2023-03-16T08:56:54.796Z,28.84
2023-03-16T08:59:29.684Z,29.00
2023-03-16T09:01:57.465Z,28.76
2023-03-16T09:04:24.178Z,28.71
2023-03-16T09:07:07.887Z,28.70
2023-03-16T09:09:35.572Z,28.79
2023-03-16T09:12:02.693Z,28.97
2023-03-16T09:14:29.859Z,28.65
2023-03-16T09:16:56.745Z,28.06
2023-03-16T09:19:23.364Z,28.21
2023-03-16T09:21:49.962Z,28.14
2023-03-16T09:24:16.645Z,28.06
2023-03-16T09:26:43.954Z,28.05
2023-03-16T09:29:10.661Z,28.10
2023-03-16T09:31:37.514Z,28.25
2023-03-16T09:34:04.854Z,28.45
2023-03-16T09:36:31.478Z,28.10
2023-03-16T09:38:58.041Z,28.30
2023-03-16T09:41:49.694Z,28.46
2023-03-16T09:44:39.878Z,28.41
2023-03-16T09:47:07.616Z,28.36
2023-03-16T09:49:49.514Z,28.36
2023-03-16T09:52:55.469Z,28.39
2023-03-16T09:55:33.143Z,28.52
2023-03-16T09:58:00.454Z,28.50
2023-03-16T10:00:32.713Z,28.58
2023-03-16T10:03:11.456Z,28.54
2023-03-16T10:05:38.649Z,28.47
2023-03-16T10:08:16.751Z,28.51
2023-03-16T10:11:14.362Z,28.49
2023-03-16T10:14:02.574Z,28.54
2023-03-16T10:16:42.492Z,28.37
2023-03-16T10:19:38.430Z,28.52
2023-03-16T10:22:22.201Z,28.37
2023-03-16T10:25:00.673Z,28.26
2023-03-16T10:27:32.853Z,28.24
2023-03-16T10:30:01.198Z,28.35
2023-03-16T10:32:31.495Z,28.41
2023-03-16T10:35:22.586Z,28.40
2023-03-16T10:37:49.235Z,28.25
2023-03-16T10:40:15.894Z,28.31
2023-03-16T10:42:42.450Z,28.33
2023-03-16T10:45:28.967Z,28.52
2023-03-16T10:48:09.346Z,28.60
2023-03-16T10:50:36.271Z,28.62
2023-03-16T10:53:03.063Z,28.17
2023-03-16T10:55:32.565Z,28.35
2023-03-16T10:57:59.221Z,28.27
2023-03-16T11:00:26.941Z,28.47
2023-03-16T11:02:56.806Z,28.25
2023-03-16T11:05:23.878Z,28.10
2023-03-16T11:07:51.414Z,28.31
2023-03-16T11:10:40.540Z,28.27
2023-03-16T11:13:17.626Z,28.12
2023-03-16T11:15:51.111Z,28.21
2023-03-16T11:19:00.388Z,28.10
2023-03-16T11:21:50.909Z,28.41
2023-03-16T11:24:23.020Z,28.54
2023-03-16T11:26:54.832Z,28.71
2023-03-16T11:29:28.578Z,28.46
2023-03-16T11:32:05.631Z,28.59
2023-03-16T11:34:33.058Z,28.45
2023-03-16T11:37:14.910Z,28.73
2023-03-16T11:40:15.369Z,28.33
2023-03-16T11:43:20.166Z,28.58
2023-03-16T11:46:13.876Z,28.39
2023-03-16T11:49:07.677Z,28.54
2023-03-16T11:51:41.836Z,28.49
2023-03-16T11:54:18.597Z,28.85
2023-03-16T11:56:54.884Z,28.74
2023-03-16T11:59:31.705Z,28.62
2023-03-16T12:02:17.145Z,28.73
2023-03-16T12:04:46.476Z,28.54
2023-03-16T12:07:25.781Z,28.80
2023-03-16T12:10:06.712Z,28.33
2023-03-16T12:12:53.379Z,27.29
2023-03-16T12:15:32.956Z,26.25
2023-03-16T12:18:02.749Z,23.73
2023-03-16T12:20:51.965Z,22.65
2023-03-16T12:23:29.630Z,23.03
2023-03-16T12:25:58.889Z,23.12
2023-03-16T12:28:26.894Z,23.05
2023-03-16T12:31:16.360Z,23.25
2023-03-16T12:33:53.175Z,23.31
2023-03-16T12:36:29.291Z,23.29
2023-03-16T12:39:00.409Z,23.68
2023-03-16T12:41:47.405Z,23.52
2023-03-16T12:44:22.239Z,23.68
2023-03-16T12:47:19.796Z,24.00
2023-03-16T12:49:46.392Z,24.14
2023-03-16T12:52:14.510Z,24.06
2023-03-16T12:54:54.724Z,24.36
2023-03-16T12:57:24.555Z,24.28
2023-03-16T12:59:55.482Z,24.28
2023-03-16T13:02:51.745Z,24.41
2023-03-16T13:05:27.081Z,24.63
2023-03-16T13:08:05.488Z,24.89
2023-03-16T13:10:33.161Z,24.61
2023-03-16T13:13:11.444Z,24.66
2023-03-16T13:15:39.761Z,25.00
2023-03-16T13:18:09.821Z,24.89
2023-03-16T13:20:58.171Z,24.98
2023-03-16T13:23:30.160Z,24.86
2023-03-16T13:26:16.078Z,25.02
2023-03-16T13:28:45.341Z,24.89
2023-03-16T13:31:38.936Z,25.24
2023-03-16T13:34:06.881Z,25.34
2023-03-16T13:36:33.950Z,25.19
2023-03-16T13:39:22.311Z,25.22
2023-03-16T13:42:14.958Z,25.37
2023-03-16T13:44:41.583Z,25.40
2023-03-16T13:47:08.524Z,25.26
2023-03-16T13:49:44.344Z,25.41
2023-03-16T13:52:30.020Z,25.54
2023-03-16T13:54:57.616Z,25.54
2023-03-16T13:57:30.876Z,25.51
2023-03-16T14:00:23.600Z,25.55
2023-03-16T14:02:56.431Z,25.72
2023-03-16T14:05:34.570Z,25.87
2023-03-16T14:08:01.441Z,25.98
2023-03-16T14:10:37.131Z,25.70
2023-03-16T14:13:29.193Z,24.25
2023-03-16T14:16:01.096Z,23.96
2023-03-16T14:18:40.869Z,23.05
2023-03-16T14:21:09.865Z,22.58
2023-03-16T14:23:44.477Z,22.32
2023-03-16T14:26:13.508Z,22.40
2023-03-16T14:28:40.267Z,22.73
2023-03-16T14:31:10.214Z,23.01
2023-03-16T14:33:41.532Z,22.52
2023-03-16T14:36:13.241Z,22.22
2023-03-16T14:38:44.165Z,22.21
2023-03-16T14:41:28.021Z,21.73
2023-03-16T14:43:56.488Z,22.17
2023-03-16T14:46:31.320Z,22.11
2023-03-16T14:49:10.325Z,22.19
2023-03-16T14:51:38.573Z,22.71
2023-03-16T14:54:17.176Z,22.80
2023-03-16T14:56:50.977Z,23.43
2023-03-16T14:59:17.957Z,23.40
2023-03-16T15:01:48.263Z,23.68
2023-03-16T15:04:16.238Z,23.69
2023-03-16T15:06:42.975Z,23.63
2023-03-16T15:09:25.701Z,23.86
2023-03-16T15:11:55.431Z,24.06
2023-03-16T15:14:40.840Z,24.34
2023-03-16T15:17:08.979Z,24.44
2023-03-16T15:19:36.078Z,24.70
2023-03-16T15:22:02.901Z,24.81
2023-03-16T15:24:31.192Z,24.44
2023-03-16T15:26:57.769Z,24.64
2023-03-16T15:29:24.382Z,24.57
2023-03-16T15:31:54.670Z,24.43
2023-03-16T15:34:22.555Z,25.02
2023-03-16T15:36:49.391Z,25.15
2023-03-16T15:39:24.063Z,25.66
2023-03-16T15:41:50.941Z,25.74
2023-03-16T15:44:17.866Z,24.79
2023-03-16T15:46:44.591Z,25.59
2023-03-16T15:49:11.362Z,23.60
2023-03-16T15:51:38.000Z,22.15
2023-03-16T15:54:05.987Z,21.63
2023-03-16T15:56:41.146Z,21.85
2023-03-16T15:59:16.976Z,21.79
2023-03-16T16:01:45.093Z,22.61
2023-03-16T16:04:19.945Z,23.45
2023-03-16T16:06:47.581Z,23.95
2023-03-16T16:09:14.795Z,24.12
2023-03-16T16:11:41.554Z,24.40
2023-03-16T16:14:20.630Z,24.95
2023-03-16T16:16:47.330Z,24.79
2023-03-16T16:19:14.681Z,24.43
2023-03-16T16:21:41.423Z,24.91
2023-03-16T16:24:13.357Z,25.25
2023-03-16T16:26:52.881Z,25.36
2023-03-16T16:29:25.670Z,25.88
2023-03-16T16:31:52.620Z,26.14
2023-03-16T16:34:21.392Z,26.72
2023-03-16T16:36:48.409Z,27.42
2023-03-16T16:39:14.982Z,26.92
2023-03-16T16:41:41.813Z,26.69
2023-03-16T16:44:23.473Z,26.37
2023-03-16T16:46:50.753Z,26.61
2023-03-16T16:49:28.262Z,26.61
2023-03-16T16:51:54.991Z,26.46
2023-03-16T16:54:23.267Z,26.51
2023-03-16T16:56:50.582Z,26.40
2023-03-16T16:59:19.093Z,26.65
2023-03-16T17:01:50.726Z,26.64
2023-03-16T17:04:25.385Z,26.53
2023-03-16T17:06:58.248Z,26.50
2023-03-16T17:09:26.078Z,26.35
2023-03-16T17:11:58.554Z,26.63
2023-03-16T17:14:27.628Z,26.74
2023-03-16T17:16:54.441Z,26.84
2023-03-16T17:19:25.297Z,26.94
2023-03-16T17:21:52.387Z,26.84
2023-03-16T17:24:19.030Z,26.72
2023-03-16T17:26:47.801Z,26.89
2023-03-16T17:29:24.310Z,26.95
2023-03-16T17:31:51.188Z,26.90
2023-03-16T17:34:19.868Z,27.08
2023-03-16T17:36:46.843Z,27.10
2023-03-16T17:39:24.784Z,26.99
2023-03-16T17:41:54.661Z,27.14
2023-03-16T17:44:21.606Z,27.14
2023-03-16T17:46:48.318Z,27.28
2023-03-16T17:49:17.622Z,27.34
2023-03-16T17:51:45.105Z,27.57
2023-03-16T17:54:11.840Z,27.53
2023-03-16T17:56:40.181Z,27.42
2023-03-16T17:59:08.406Z,27.55
2023-03-16T18:01:35.098Z,27.13
2023-03-16T18:04:06.663Z,27.60
2023-03-16T18:06:33.355Z,27.78
2023-03-16T18:09:00.146Z,27.80
2023-03-16T18:11:29.435Z,27.74
2023-03-16T18:13:56.125Z,27.90
2023-03-16T18:16:28.262Z,27.78
2023-03-16T18:19:05.776Z,28.44
2023-03-16T18:21:36.313Z,28.02
2023-03-16T18:24:02.911Z,28.09
2023-03-16T18:26:29.587Z,27.84
2023-03-16T18:28:56.427Z,27.84
2023-03-16T18:31:27.450Z,28.09
2023-03-16T18:33:58.428Z,27.63
2023-03-16T18:36:32.517Z,27.75
2023-03-16T18:39:00.860Z,28.19
2023-03-16T18:41:31.189Z,29.21
2023-03-16T18:43:58.748Z,29.67
2023-03-16T18:46:27.131Z,29.60
2023-03-16T18:48:55.472Z,29.46
2023-03-16T18:51:22.254Z,28.68
2023-03-16T18:53:49.022Z,28.36
2023-03-16T18:56:26.625Z,28.21
2023-03-16T18:58:53.668Z,28.39
2023-03-16T19:01:30.738Z,28.54
2023-03-16T19:03:57.806Z,28.22
2023-03-16T19:06:32.221Z,28.53
2023-03-16T19:09:03.081Z,28.47
2023-03-16T19:11:29.768Z,28.06
2023-03-16T19:13:56.991Z,27.95
2023-03-16T19:16:23.769Z,28.04
2023-03-16T19:18:50.749Z,28.16
2023-03-16T19:21:18.855Z,28.28
2023-03-16T19:23:47.996Z,28.23
2023-03-16T19:26:15.322Z,28.28
2023-03-16T19:28:45.776Z,28.03
2023-03-16T19:31:31.250Z,28.14
2023-03-16T19:33:58.552Z,28.07
2023-03-16T19:36:33.504Z,28.26
2023-03-16T19:39:00.266Z,27.90
2023-03-16T19:41:34.825Z,28.29
2023-03-16T19:44:08.404Z,28.06
2023-03-16T19:46:35.409Z,28.12
2023-03-16T19:49:02.073Z,28.34
2023-03-16T19:51:32.251Z,28.17
2023-03-16T19:54:01.221Z,28.07
2023-03-16T19:56:31.658Z,27.93
2023-03-16T19:58:58.665Z,28.18
2023-03-16T20:01:30.439Z,28.17
2023-03-16T20:03:59.754Z,28.05
2023-03-16T20:06:27.207Z,28.18
2023-03-16T20:08:54.058Z,28.06
2023-03-16T20:11:28.459Z,27.71
2023-03-16T20:13:58.453Z,27.96
2023-03-16T20:16:30.043Z,28.31
2023-03-16T20:18:58.275Z,27.81
2023-03-16T20:21:31.723Z,28.40
2023-03-16T20:23:59.597Z,28.27
2023-03-16T20:26:29.078Z,28.48
2023-03-16T20:28:55.753Z,28.40
2023-03-16T20:31:27.802Z,28.33
2023-03-16T20:33:55.852Z,28.28
2023-03-16T20:36:25.812Z,28.33
2023-03-16T20:38:52.449Z,28.65
2023-03-16T20:41:29.314Z,28.60
2023-03-16T20:43:56.254Z,28.53
2023-03-16T20:46:28.007Z,28.60
2023-03-16T20:48:55.425Z,28.77
2023-03-16T20:51:24.747Z,28.50
2023-03-16T20:53:51.483Z,28.71
2023-03-16T20:56:22.769Z,28.33
2023-03-16T20:58:50.078Z,28.69
2023-03-16T21:01:18.876Z,28.46
2023-03-16T21:03:47.523Z,28.38
2023-03-16T21:06:23.525Z,28.39
2023-03-16T21:08:51.843Z,28.70
2023-03-16T21:11:38.789Z,28.47
2023-03-16T21:14:07.169Z,28.44
2023-03-16T21:16:34.135Z,28.48
2023-03-16T21:19:00.785Z,28.60
2023-03-16T21:21:27.415Z,28.52
2023-03-16T21:23:57.516Z,28.73
2023-03-16T21:26:25.045Z,28.95
2023-03-16T21:28:59.453Z,28.79
2023-03-16T21:31:26.440Z,28.91
2023-03-16T21:33:53.899Z,28.97
2023-03-16T21:36:22.262Z,28.96
2023-03-16T21:38:49.462Z,28.97
2023-03-16T21:41:16.659Z,28.85
2023-03-16T21:43:43.301Z,29.08
2023-03-16T21:46:14.590Z,29.11
2023-03-16T21:48:41.192Z,29.11
2023-03-16T21:51:16.172Z,29.01
2023-03-16T21:53:43.238Z,28.81
2023-03-16T21:56:12.844Z,29.04
2023-03-16T21:58:41.170Z,29.14
2023-03-16T22:01:14.182Z,29.02
2023-03-16T22:03:50.446Z,28.74
2023-03-16T22:06:17.741Z,28.94
2023-03-16T22:08:44.440Z,28.88
2023-03-16T22:11:22.573Z,28.87
2023-03-16T22:13:50.029Z,28.85
2023-03-16T22:16:18.075Z,29.01
2023-03-16T22:18:45.698Z,28.90
2023-03-16T22:21:30.744Z,28.79
2023-03-16T22:23:57.568Z,29.37
2023-03-16T22:26:24.559Z,29.04
2023-03-16T22:28:51.873Z,29.14
2023-03-16T22:31:20.450Z,29.13
2023-03-16T22:33:48.613Z,29.06
2023-03-16T22:36:16.951Z,29.06
2023-03-16T22:38:43.641Z,29.25
2023-03-16T22:41:14.503Z,29.40
2023-03-16T22:43:42.896Z,29.44
2023-03-16T22:46:17.644Z,29.45
2023-03-16T22:48:44.273Z,29.29
2023-03-16T22:51:19.565Z,29.39
2023-03-16T22:53:46.825Z,29.24
2023-03-16T22:56:13.404Z,29.38
2023-03-16T22:58:45.028Z,29.42
2023-03-16T23:01:16.657Z,29.15
2023-03-16T23:03:46.412Z,29.20
2023-03-16T23:06:17.056Z,29.29
2023-03-16T23:08:43.716Z,29.40
2023-03-16T23:11:17.911Z,29.04
2023-03-16T23:13:44.517Z,29.35
2023-03-16T23:16:19.262Z,29.21
2023-03-16T23:18:46.611Z,29.31
2023-03-16T23:21:14.660Z,29.42
2023-03-16T23:23:44.370Z,29.42
2023-03-16T23:26:17.522Z,29.32
2023-03-16T23:28:46.287Z,29.48
2023-03-16T23:31:13.652Z,29.36
2023-03-16T23:33:40.996Z,29.36
2023-03-16T23:36:24.360Z,29.43
2023-03-16T23:38:51.022Z,29.45
2023-03-16T23:41:20.453Z,29.42
2023-03-16T23:43:49.739Z,29.46
2023-03-16T23:46:18.447Z,29.23
2023-03-16T23:48:45.876Z,29.23
2023-03-16T23:51:21.260Z,29.37
2023-03-16T23:53:52.068Z,29.32
2023-03-16T23:56:18.966Z,29.11
2023-03-16T23:58:48.245Z,29.22
